Time;durP1;ratioP1;P1;durP2;ratioP2;P2;SDS_P1;SDS_P2;PMS_P1;PMS_P2;Temp;Humidity;BMP_temperature;BMP_pressure;BME280_temperature;BME280_humidity;BME280_pressure;Samples;Min_cycle;Max_cycle;Signal;HPM_P1;HPM_P2
2021/09/07 00:00:09;;;;;;;;;25.50;23.50;;;;;9.92;93.31;100462.56;6747516;19;2846027;-57
2021/09/07 00:02:36;;;;;;;;;26.50;22.00;;;;;9.22;94.83;100459.44;6749092;19;2496024;-57
2021/09/07 00:05:05;;;;;;;;;24.00;19.00;;;;;9.47;94.86;100458.34;6746939;19;2498099;-57
2021/09/07 00:07:34;;;;;;;;;19.00;18.00;;;;;9.40;93.73;100458.66;6748729;19;2498199;-57
2021/09/07 00:10:05;;;;;;;;;24.50;19.00;;;;;9.37;94.80;100458.78;6747232;19;2498123;-56
2021/09/07 00:12:33;;;;;;;;;21.50;21.50;;;;;9.37;94.99;100458.78;6751228;19;2830426;-57
2021/09/07 00:15:01;;;;;;;;;20.50;20.50;;;;;9.54;92.66;100455.34;6748221;19;2498131;-57
2021/09/07 00:17:30;;;;;;;;;22.33;21.00;;;;;9.88;92.01;100454.66;6745647;19;3573088;-57
2021/09/07 00:19:58;;;;;;;;;22.50;21.00;;;;;9.66;91.59;100445.84;6746004;19;2498100;-58
2021/09/07 00:22:26;;;;;;;;;23.50;21.00;;;;;9.40;93.75;100453.28;6746179;19;2836628;-57
2021/09/07 00:24:55;;;;;;;;;22.00;20.00;;;;;9.63;93.66;100452.22;6745565;19;2834541;-57
2021/09/07 00:27:23;;;;;;;;;25.00;21.50;;;;;10.16;91.81;100458.72;6745168;19;2498119;-58
2021/09/07 00:29:50;;;;;;;;;24.00;18.50;;;;;10.20;91.24;100454.97;6751912;19;2831452;-58
2021/09/07 00:32:18;;;;;;;;;19.00;18.00;;;;;9.74;92.11;100451.75;6751393;19;2826224;-58
2021/09/07 00:34:46;;;;;;;;;24.33;19.67;;;;;9.60;92.41;100448.81;6744445;19;3578384;-58
2021/09/07 00:37:15;;;;;;;;;23.00;14.33;;;;;9.48;92.78;100446.69;6746432;19;3557425;-58
2021/09/07 00:39:43;;;;;;;;;18.67;15.67;;;;;10.06;89.13;100452.09;6748280;19;3541844;-58
2021/09/07 00:42:11;;;;;;;;;17.00;14.00;;;;;9.65;90.39;100446.81;6748828;19;2811720;-57
2021/09/07 00:44:39;;;;;;;;;19.00;17.50;;;;;9.47;93.16;100447.63;6753722;19;2811629;-57
2021/09/07 00:47:06;;;;;;;;;21.00;15.50;;;;;9.43;93.42;100446.91;6753993;19;2807463;-58
2021/09/07 00:49:36;;;;;;;;;21.67;18.00;;;;;9.73;91.78;100455.38;6746098;19;3565134;-58
2021/09/07 00:52:06;;;;;;;;;17.00;14.50;;;;;9.30;93.09;100445.72;6782172;19;2817907;-57
2021/09/07 00:54:38;;;;;;;;;17.00;14.00;;;;;9.50;92.54;100455.53;6752904;19;2815827;-58
2021/09/07 00:57:09;;;;;;;;;13.00;13.00;;;;;8.99;94.11;100439.88;6746310;19;3527221;-58
2021/09/07 00:59:38;;;;;;;;;16.00;13.67;;;;;9.50;93.50;100448.34;6778587;19;3531416;-58
2021/09/07 01:02:07;;;;;;;;;20.50;18.00;;;;;8.88;94.55;100439.47;6783908;19;2829337;-57
2021/09/07 01:04:36;;;;;;;;;15.67;14.67;;;;;8.74;95.75;100447.19;6745147;19;3538684;-58
2021/09/07 01:07:05;;;;;;;;;18.00;15.33;;;;;9.26;94.39;100450.31;6745673;19;3553320;-58
2021/09/07 01:09:33;;;;;;;;;17.00;17.00;;;;;8.86;94.79;100446.69;6782951;19;2827290;-58
2021/09/07 01:12:02;;;;;;;;;21.33;16.33;;;;;8.70;96.20;100440.25;6742645;19;3555377;-58
2021/09/07 01:14:36;;;;;;;;;16.00;14.50;;;;;9.05;95.56;100443.22;6787177;19;2805393;-58
2021/09/07 01:17:14;;;;;;;;;14.00;12.00;;;;;9.57;93.30;100455.19;6744278;19;2808553;-58
2021/09/07 01:19:46;;;;;;;;;18.00;15.00;;;;;8.95;95.29;100440.06;6776141;19;3537689;-58
2021/09/07 01:22:19;;;;;;;;;20.00;15.00;;;;;8.81;95.88;100443.34;6782091;19;2802306;-58
2021/09/07 01:24:48;;;;;;;;;21.00;19.50;;;;;9.07;95.34;100449.41;6751236;19;2826971;-58
2021/09/07 01:27:19;;;;;;;;;12.00;12.00;;;;;9.38;95.06;100452.47;6746719;19;2806569;-58
2021/09/07 01:29:48;;;;;;;;;15.00;15.00;;;;;9.56;93.56;100457.97;6786513;19;2802365;-58
2021/09/07 01:32:19;;;;;;;;;18.00;15.00;;;;;9.58;93.35;100458.75;6740541;19;3549107;-58
2021/09/07 01:34:47;;;;;;;;;15.50;15.50;;;;;9.56;93.63;100456.16;6784922;19;2793990;-58
2021/09/07 01:37:15;;;;;;;;;17.00;17.00;;;;;9.33;93.27;100453.63;6745205;19;3553290;-59
2021/09/07 01:39:44;;;;;;;;;15.00;15.00;;;;;9.37;90.61;100456.09;6778006;19;3539768;-58
2021/09/07 01:42:12;;;;;;;;;19.67;15.33;;;;;9.30;89.83;100453.75;6775927;19;3552221;-58
2021/09/07 01:44:43;;;;;;;;;18.00;15.67;;;;;8.97;92.47;100455.13;6776702;19;3560569;-58
2021/09/07 01:47:11;;;;;;;;;15.00;15.00;;;;;8.88;94.04;100455.53;6749071;19;2792959;-58
2021/09/07 01:49:39;;;;;;;;;19.00;16.00;;;;;9.06;94.48;100453.00;6752184;19;2810595;-58
2021/09/07 01:52:12;;;;;;;;;16.50;16.00;;;;;8.98;94.98;100451.53;6749887;19;2816825;-56
2021/09/07 01:54:48;;;;;;;;;15.67;14.67;;;;;9.05;94.98;100451.25;6745553;19;3540774;-59
2021/09/07 01:57:18;;;;;;;;;17.67;15.00;;;;;9.65;93.35;100452.16;6779525;19;3546005;-58
2021/09/07 01:59:46;;;;;;;;;17.67;17.00;;;;;9.73;92.06;100455.38;6780750;19;3528287;-58
2021/09/07 02:02:14;;;;;;;;;21.00;16.00;;;;;8.98;93.74;100450.66;6788147;19;2812698;-58
2021/09/07 02:04:45;;;;;;;;;17.67;16.00;;;;;8.87;94.33;100452.91;6748545;19;3543931;-58
2021/09/07 02:07:14;;;;;;;;;16.33;12.67;;;;;9.23;92.50;100455.81;6779362;19;3540921;-58
2021/09/07 02:09:42;;;;;;;;;16.00;15.67;;;;;8.71;93.61;100445.50;6780710;19;3551290;-58
2021/09/07 02:12:10;;;;;;;;;16.50;16.00;;;;;8.66;94.86;100449.31;6789831;19;2817878;-57
2021/09/07 02:14:39;;;;;;;;;17.33;14.00;;;;;8.59;94.86;100446.03;6751280;19;3541160;-58
2021/09/07 02:17:07;;;;;;;;;20.67;12.33;;;;;8.69;94.66;100443.84;6783777;19;3534833;-58
2021/09/07 02:19:35;;;;;;;;;16.00;15.50;;;;;8.88;93.64;100443.97;6787193;19;2816887;-58
2021/09/07 02:22:05;;;;;;;;;22.67;14.33;;;;;9.08;92.85;100445.75;6749595;19;3551222;-58
2021/09/07 02:24:32;;;;;;;;;16.00;14.00;;;;;9.05;93.31;100433.38;6787298;19;2807490;-58
2021/09/07 02:27:01;;;;;;;;;13.00;13.00;;;;;8.81;94.79;100427.25;6748196;19;2797114;-58
2021/09/07 02:29:29;;;;;;;;;17.33;15.00;;;;;8.85;95.42;100428.88;6782276;19;3537642;-57
2021/09/07 02:31:59;;;;;;;;;15.40;13.00;;;;;9.45;93.60;100434.28;6813355;19;2816834;-58
2021/09/07 02:34:27;;;;;;;;;16.33;16.33;;;;;9.50;91.86;100434.09;6749624;19;3542854;-58
2021/09/07 02:36:56;;;;;;;;;21.33;15.33;;;;;8.77;93.19;100425.69;6781970;19;3546007;-58
2021/09/07 02:39:24;;;;;;;;;15.00;14.00;;;;;8.50;94.77;100428.53;6760185;19;2789818;-58
2021/09/07 02:41:53;;;;;;;;;16.80;15.40;;;;;8.70;94.60;100424.19;6813879;19;2810607;-59
2021/09/07 02:44:23;;;;;;;;;15.00;14.00;;;;;8.69;94.39;100431.34;6779036;19;2810612;-58
2021/09/07 02:46:52;;;;;;;;;18.67;15.67;;;;;8.70;92.82;100429.53;6750123;19;2815870;-58
2021/09/07 02:49:20;;;;;;;;;18.00;13.33;;;;;8.19;93.37;100428.00;6785057;19;3540754;-58
2021/09/07 02:51:49;;;;;;;;;16.67;13.33;;;;;8.11;94.07;100436.34;6782723;19;2802259;-58
2021/09/07 02:54:18;;;;;;;;;14.00;14.00;;;;;8.57;92.88;100434.53;6781037;19;2810583;-58
2021/09/07 02:56:45;;;;;;;;;16.00;16.00;;;;;8.39;93.29;100436.13;6789735;19;2817879;-57
2021/09/07 02:59:15;;;;;;;;;13.33;13.33;;;;;8.14;94.94;100430.88;6749218;19;3534575;-58
2021/09/07 03:01:43;;;;;;;;;17.00;14.00;;;;;8.18;96.09;100423.59;6782710;19;2807679;-57
2021/09/07 03:04:12;;;;;;;;;13.33;12.67;;;;;8.41;95.68;100420.91;6782199;19;3529408;-58
2021/09/07 03:06:40;;;;;;;;;17.33;14.67;;;;;8.23;95.50;100440.34;6779980;19;2803312;-58
2021/09/07 03:09:09;;;;;;;;;18.00;14.33;;;;;8.18;96.21;100426.28;6781927;19;3554087;-58
2021/09/07 03:11:37;;;;;;;;;17.67;17.33;;;;;8.20;96.31;100427.97;6779796;19;3565766;-58
2021/09/07 03:14:05;;;;;;;;;15.33;14.33;;;;;8.57;94.89;100426.50;6745862;19;2805456;-58
2021/09/07 03:16:34;;;;;;;;;21.33;17.00;;;;;8.47;94.53;100431.34;6783512;19;3555425;-58
2021/09/07 03:19:04;;;;;;;;;15.00;11.80;;;;;7.98;95.90;100427.03;6814026;19;2802267;-58
2021/09/07 03:21:32;;;;;;;;;13.00;13.00;;;;;8.51;95.37;100430.28;6749237;19;2807463;-57
2021/09/07 03:24:01;;;;;;;;;15.33;14.00;;;;;8.37;94.23;100437.97;6750587;19;3537642;-58
2021/09/07 03:26:29;;;;;;;;;15.67;14.33;;;;;8.32;94.78;100437.28;6779509;19;2812720;-58
2021/09/07 03:28:57;;;;;;;;;14.00;14.00;;;;;8.41;93.32;100428.94;6780003;19;2803338;-58
2021/09/07 03:31:26;;;;;;;;;19.67;15.33;;;;;8.36;94.18;100431.75;6782501;19;3548102;-57
2021/09/07 03:33:54;;;;;;;;;20.00;16.00;;;;;8.32;94.16;100429.25;6783097;19;2822099;-58
2021/09/07 03:36:23;;;;;;;;;19.00;15.00;;;;;8.40;94.12;100429.88;6750150;19;3546616;-58
2021/09/07 03:38:50;;;;;;;;;19.00;14.00;;;;;7.86;95.20;100433.75;6789355;19;2698092;-58
2021/09/07 03:41:18;;;;;;;;;11.00;11.00;;;;;8.01;96.05;100433.16;6780313;19;2791853;-58
2021/09/07 03:43:47;;;;;;;;;17.50;17.50;;;;;8.54;94.32;100430.16;6783657;19;2822085;-58
2021/09/07 03:46:16;;;;;;;;;19.33;14.67;;;;;8.57;93.14;100434.53;6748949;19;3546018;-58
2021/09/07 03:48:44;;;;;;;;;19.67;17.00;;;;;7.82;96.34;100434.78;6779915;19;3540862;-58
2021/09/07 03:51:12;;;;;;;;;18.00;15.00;;;;;7.80;97.32;100423.31;6787245;19;2817887;-58
2021/09/07 03:53:40;;;;;;;;;28.00;25.00;;;;;8.51;95.18;100426.75;6748942;19;2844961;-57
2021/09/07 03:56:09;;;;;;;;;24.50;20.50;;;;;8.28;95.27;100424.97;6748430;19;2840791;-58
2021/09/07 03:58:36;;;;;;;;;22.00;17.00;;;;;8.23;95.94;100424.28;6751129;19;2821035;-58
2021/09/07 04:01:05;;;;;;;;;17.33;15.00;;;;;8.52;95.11;100428.47;6750515;19;3536619;-58
2021/09/07 04:03:34;;;;;;;;;39.00;35.33;;;;;8.45;93.95;100430.56;6778818;19;2869007;-57
2021/09/07 04:06:06;;;;;;;;;36.33;28.00;;;;;8.89;92.20;100429.63;6781590;19;3616829;-58
2021/09/07 04:08:35;;;;;;;;;38.00;32.00;;;;;8.31;94.13;100424.84;6781044;19;2864870;-58
2021/09/07 04:11:03;;;;;;;;;30.00;25.00;;;;;8.04;96.26;100422.34;6778237;19;2840843;-58
2021/09/07 04:13:32;;;;;;;;;24.67;22.00;;;;;8.53;95.27;100433.78;6744647;19;3569929;-58
2021/09/07 04:15:59;;;;;;;;;24.00;20.00;;;;;8.50;93.69;100428.53;6748817;19;2493937;-57
2021/09/07 04:18:28;;;;;;;;;25.00;21.00;;;;;8.27;95.16;100428.59;6746876;19;2845029;-58
2021/09/07 04:20:55;;;;;;;;;25.00;20.00;;;;;8.35;95.13;100432.69;6755176;19;2498251;-58
2021/09/07 04:23:24;;;;;;;;;24.67;18.33;;;;;7.87;96.63;100432.81;6776843;19;3565916;-58
2021/09/07 04:25:54;;;;;;;;;21.00;17.50;;;;;8.11;97.06;100434.56;6751490;19;2827293;-56
2021/09/07 04:28:22;;;;;;;;;24.00;19.00;;;;;7.96;97.53;100435.16;6746086;19;2498200;-57
2021/09/07 04:30:50;;;;;;;;;21.00;19.00;;;;;8.24;95.51;100442.06;6748335;19;2498100;-58
2021/09/07 04:33:17;;;;;;;;;21.00;18.00;;;;;8.19;94.26;100444.06;6752565;19;2826809;-58
2021/09/07 04:35:46;;;;;;;;;28.00;21.00;;;;;7.64;95.25;100445.25;6748302;19;2843935;-58
2021/09/07 04:38:14;;;;;;;;;20.00;17.67;;;;;7.89;95.58;100436.31;6743830;19;3568930;-58
2021/09/07 04:40:42;;;;;;;;;20.00;16.00;;;;;7.75;95.29;100446.66;6754294;19;2806421;-57
2021/09/07 04:43:10;;;;;;;;;21.00;18.00;;;;;8.30;93.04;100449.88;6749320;19;2817875;-58
2021/09/07 04:45:38;;;;;;;;;14.50;14.00;;;;;8.34;91.62;100454.16;6753580;19;2811685;-58
2021/09/07 04:48:05;;;;;;;;;14.00;11.50;;;;;8.17;92.29;100456.63;6746868;19;2784600;-58
2021/09/07 04:50:34;;;;;;;;;14.00;12.67;;;;;8.56;91.29;100460.41;6747321;19;2799200;-56
2021/09/07 04:53:02;;;;;;;;;13.33;13.33;;;;;8.43;92.20;100469.88;6777282;19;2801213;-58
2021/09/07 04:55:31;;;;;;;;;14.00;14.00;;;;;8.59;93.10;100458.56;6779228;19;2816891;-58
2021/09/07 04:57:59;;;;;;;;;19.00;15.00;;;;;8.68;92.56;100464.38;6779511;19;3547028;-58
2021/09/07 05:00:27;;;;;;;;;14.67;12.00;;;;;8.99;92.15;100463.97;6778911;19;3519926;-58
2021/09/07 05:02:57;;;;;;;;;17.50;12.00;;;;;9.39;88.86;100470.28;6809421;19;2689747;-57
2021/09/07 05:05:26;;;;;;;;;18.00;12.67;;;;;9.05;91.34;100465.53;6776113;19;3551317;-58
2021/09/07 05:07:55;;;;;;;;;17.33;16.00;;;;;9.06;91.56;100469.97;6741182;19;3556473;-58
2021/09/07 05:10:25;;;;;;;;;19.33;14.00;;;;;9.10;91.50;100473.38;6779828;19;3554328;-57
2021/09/07 05:12:53;;;;;;;;;15.50;14.00;;;;;9.27;90.61;100472.63;6785667;19;2807479;-58
2021/09/07 05:15:21;;;;;;;;;13.33;13.33;;;;;9.30;90.38;100468.03;6744703;19;3531376;-57
2021/09/07 05:17:50;;;;;;;;;17.00;16.33;;;;;9.74;89.18;100477.69;6775814;19;3550141;-57
2021/09/07 05:20:19;;;;;;;;;21.00;17.00;;;;;9.88;88.41;100480.63;6777374;19;3551274;-58
2021/09/07 05:22:47;;;;;;;;;19.67;15.33;;;;;9.14;90.25;100481.22;6747084;19;3539765;-57
2021/09/07 05:25:16;;;;;;;;;17.67;17.67;;;;;9.65;88.76;100484.34;6778897;19;3556427;-57
2021/09/07 05:27:43;;;;;;;;;20.00;17.00;;;;;9.76;89.50;100479.34;6747670;19;2822161;-57
2021/09/07 05:30:13;;;;;;;;;17.67;17.00;;;;;9.92;88.53;100492.06;6745242;19;3552255;-58
2021/09/07 05:32:42;;;;;;;;;19.33;15.00;;;;;10.25;86.68;100484.28;6744953;19;3544949;-58
2021/09/07 05:35:10;;;;;;;;;18.33;15.00;;;;;10.55;85.11;100498.06;6775287;19;3539721;-57
2021/09/07 05:37:39;;;;;;;;;19.00;13.00;;;;;11.17;81.59;100496.75;6779325;19;2498104;-56
2021/09/07 05:40:11;;;;;;;;;15.00;15.00;;;;;11.06;81.52;100501.81;6745414;19;3547072;-57
2021/09/07 05:42:43;;;;;;;;;16.00;13.67;;;;;11.37;80.09;100513.66;6744755;19;3536703;-57
2021/09/07 05:45:15;;;;;;;;;17.50;15.00;;;;;11.53;79.47;100503.00;6748578;19;2801209;-57
2021/09/07 05:47:44;;;;;;;;;15.00;14.67;;;;;11.25;79.93;100509.81;6743129;19;3516801;-57
2021/09/07 05:50:14;;;;;;;;;15.00;13.00;;;;;11.44;79.48;100515.09;6775481;19;2787672;-57
2021/09/07 05:52:45;;;;;;;;;16.67;13.33;;;;;11.75;78.42;100505.44;6775764;19;3524105;-57
2021/09/07 05:55:16;;;;;;;;;17.33;13.33;;;;;11.78;79.01;100505.25;6774603;19;3544949;-58
2021/09/07 05:57:44;;;;;;;;;16.50;14.00;;;;;11.98;77.78;100523.03;6780707;19;2810596;-57
2021/09/07 06:00:14;;;;;;;;;13.67;13.00;;;;;11.92;78.12;100521.56;6742597;19;3525146;-58
2021/09/07 06:02:42;;;;;;;;;13.50;13.50;;;;;11.88;79.15;100519.13;6783985;19;2799125;-57
2021/09/07 06:05:11;;;;;;;;;17.50;15.00;;;;;11.85;77.80;100523.69;6746843;19;2818920;-57
2021/09/07 06:07:40;;;;;;;;;17.67;15.33;;;;;12.87;74.41;100531.56;6741651;19;3544984;-58
2021/09/07 06:10:09;;;;;;;;;17.33;15.67;;;;;12.21;77.20;100521.81;6775038;19;3541867;-58
2021/09/07 06:12:39;;;;;;;;;17.33;14.33;;;;;11.86;78.59;100521.91;6776372;19;3520976;-57
2021/09/07 06:15:09;;;;;;;;;17.33;14.33;;;;;12.40;76.69;100522.53;6773202;19;3526207;-58
2021/09/07 06:17:38;;;;;;;;;16.00;13.00;;;;;12.72;74.99;100520.72;6774007;19;3526215;-57
2021/09/07 06:20:06;;;;;;;;;18.50;17.50;;;;;13.42;73.74;100527.50;6780644;19;2820006;-58
2021/09/07 06:22:35;;;;;;;;;16.33;13.67;;;;;12.78;74.56;100524.88;6742183;19;2793978;-58
2021/09/07 06:25:06;;;;;;;;;16.33;12.00;;;;;12.91;74.90;100522.34;6775429;19;3523051;-57
2021/09/07 06:27:33;;;;;;;;;13.00;13.00;;;;;13.64;73.22;100527.94;6774918;19;2784543;-58
2021/09/07 06:30:01;;;;;;;;;13.50;13.50;;;;;15.83;66.02;100537.13;6750811;19;2793961;-58
2021/09/07 06:32:30;;;;;;;;;11.00;11.00;;;;;18.68;56.11;100546.41;6744499;19;3518219;-58
2021/09/07 06:34:59;;;;;;;;;15.00;13.00;;;;;17.86;58.11;100535.75;6785982;19;2784570;-58
2021/09/07 06:37:28;;;;;;;;;13.67;13.67;;;;;19.48;53.11;100541.53;6745267;19;3522041;-59
2021/09/07 06:39:59;;;;;;;;;11.00;10.50;;;;;22.04;47.08;100550.28;6791948;19;2779331;-58
2021/09/07 06:42:27;;;;;;;;;15.00;11.00;;;;;18.16;55.27;100543.31;6762151;19;2790828;-58
2021/09/07 06:44:55;;;;;;;;;12.00;9.00;;;;;13.80;70.51;100536.84;6760079;19;2776249;-58
2021/09/07 06:47:23;;;;;;;;;12.00;11.00;;;;;14.75;69.64;100531.81;6750517;19;3515776;-57
2021/09/07 06:49:51;;;;;;;;;11.00;10.00;;;;;14.69;70.24;100533.94;6784338;19;2796026;-57
2021/09/07 06:52:21;;;;;;;;;13.33;12.33;;;;;14.79;69.05;100528.78;6751568;19;2790789;-58
2021/09/07 06:54:49;;;;;;;;;11.00;11.00;;;;;14.16;72.51;100532.78;6781593;19;2785626;-58
2021/09/07 06:57:17;;;;;;;;;14.33;11.33;;;;;15.20;69.56;100533.28;6783810;19;2784567;-57
2021/09/07 06:59:47;;;;;;;;;11.60;11.40;;;;;15.07;68.88;100532.38;6814166;19;2791896;-58
2021/09/07 07:02:14;;;;;;;;;12.50;12.00;;;;;15.50;68.49;100530.31;6760102;19;2797074;-57
2021/09/07 07:04:42;;;;;;;;;13.00;10.00;;;;;15.67;67.35;100531.03;6764794;19;2781418;-56
2021/09/07 07:07:10;;;;;;;;;11.50;10.00;;;;;15.90;67.04;100538.41;6759219;19;2793940;-56
2021/09/07 07:09:38;;;;;;;;;12.33;12.33;;;;;15.99;66.91;100532.38;6755611;19;2782503;-58
2021/09/07 07:12:07;;;;;;;;;13.00;11.00;;;;;15.90;66.50;100533.00;6796104;19;2793930;-58
2021/09/07 07:14:35;;;;;;;;;10.00;10.00;;;;;16.30;65.71;100541.03;6751722;19;2787675;-58
2021/09/07 07:17:03;;;;;;;;;17.50;14.00;;;;;16.55;65.13;100539.25;6790218;19;2809538;-57
2021/09/07 07:19:32;;;;;;;;;12.00;11.40;;;;;16.76;65.67;100534.97;6780231;19;2793914;-57
2021/09/07 07:22:00;;;;;;;;;16.00;13.00;;;;;18.31;60.40;100543.97;6759737;19;2796000;-57
2021/09/07 07:24:29;;;;;;;;;14.40;11.20;;;;;22.38;48.65;100548.91;6780570;19;2788702;-57
2021/09/07 07:27:01;;;;;;;;;12.50;12.00;;;;;19.50;54.14;100547.69;6758000;19;2793906;-57
2021/09/07 07:29:29;;;;;;;;;12.50;11.00;;;;;17.71;61.11;100540.50;6760920;19;2788713;-57
2021/09/07 07:31:58;;;;;;;;;14.33;10.67;;;;;17.88;61.26;100541.94;6750983;19;2789846;-57
2021/09/07 07:34:27;;;;;;;;;13.00;10.33;;;;;17.85;60.58;100542.16;6782723;19;2784571;-57
2021/09/07 07:36:57;;;;;;;;;11.33;11.33;;;;;18.24;59.76;100542.72;6785116;19;2786707;-57
2021/09/07 07:39:25;;;;;;;;;13.67;10.33;;;;;18.37;58.86;100538.00;6786095;19;2788787;-57
2021/09/07 07:41:54;;;;;;;;;12.00;10.67;;;;;18.17;58.45;100540.50;6782117;19;2789781;-57
2021/09/07 07:44:23;;;;;;;;;16.67;14.00;;;;;18.27;58.09;100543.31;6780284;19;3534509;-57
2021/09/07 07:46:52;;;;;;;;;10.40;8.80;;;;;18.65;57.80;100545.66;6814278;19;2768915;-57
2021/09/07 07:49:20;;;;;;;;;10.50;10.50;;;;;18.82;57.68;100548.88;6763168;19;2788697;-57
2021/09/07 07:51:47;;;;;;;;;13.00;12.50;;;;;18.95;57.25;100548.75;6762597;19;2787703;-55
2021/09/07 07:54:16;;;;;;;;;10.33;10.33;;;;;19.77;55.84;100546.34;6753877;19;3517906;-55
2021/09/07 07:56:44;;;;;;;;;10.33;10.33;;;;;19.20;56.17;100553.88;6780703;19;3507428;-57
2021/09/07 07:59:13;;;;;;;;;16.67;11.67;;;;;19.59;55.57;100553.34;6782184;19;3530343;-57
2021/09/07 08:01:41;;;;;;;;;12.00;11.00;;;;;19.48;55.50;100557.88;6783563;19;2784551;-56
2021/09/07 08:04:10;;;;;;;;;12.67;10.67;;;;;19.49;55.79;100551.41;6784908;19;2784535;-57
2021/09/07 08:06:40;;;;;;;;;12.67;9.33;;;;;20.00;54.74;100548.94;6785728;19;3500132;-57
2021/09/07 08:09:10;;;;;;;;;13.00;11.67;;;;;20.26;53.83;100549.38;6782146;19;2793991;-57
2021/09/07 08:11:39;;;;;;;;;12.67;12.00;;;;;19.82;54.50;100548.69;6792101;19;2783529;-58
2021/09/07 08:14:09;;;;;;;;;12.60;12.60;;;;;19.65;56.33;100558.28;6811855;19;2780412;-57
2021/09/07 08:16:37;;;;;;;;;16.33;11.33;;;;;20.36;54.74;100564.78;6747140;19;2800249;-57
2021/09/07 08:19:06;;;;;;;;;11.60;11.00;;;;;20.50;53.48;100560.81;6811955;19;2789795;-57
2021/09/07 08:21:35;;;;;;;;;12.00;10.00;;;;;20.03;53.78;100556.84;6758680;19;2793914;-57
2021/09/07 08:24:05;;;;;;;;;11.60;10.60;;;;;20.74;52.90;100565.97;6813732;19;2781417;-57
2021/09/07 08:26:34;;;;;;;;;11.40;11.00;;;;;20.91;52.39;100558.16;6780290;19;2786686;-57
2021/09/07 08:29:03;;;;;;;;;14.33;12.67;;;;;20.73;53.57;100561.53;6749156;19;2793968;-58
2021/09/07 08:31:31;;;;;;;;;12.67;11.00;;;;;21.37;52.46;100559.34;6792726;19;2787790;-57
2021/09/07 08:34:00;;;;;;;;;13.67;11.67;;;;;21.60;50.88;100566.31;6779648;19;3513752;-57
2021/09/07 08:36:28;;;;;;;;;10.00;10.00;;;;;21.84;50.51;100570.47;6783159;19;2793976;-58
2021/09/07 08:38:56;;;;;;;;;11.00;9.67;;;;;21.46;51.50;100567.59;6779656;19;2772142;-57
2021/09/07 08:41:25;;;;;;;;;11.00;11.00;;;;;21.63;51.34;100565.16;6780803;19;3509514;-57
2021/09/07 08:43:53;;;;;;;;;14.00;10.00;;;;;21.87;49.45;100567.44;6790022;19;2787684;-56
2021/09/07 08:46:28;;;;;;;;;6.80;6.80;;;;;21.58;50.78;100560.13;6811091;19;2741852;-57
2021/09/07 08:49:18;;;;;;;;;13.67;11.00;;;;;21.91;49.62;100563.41;6791655;19;2786622;-57
2021/09/07 08:51:47;;;;;;;;;14.33;11.67;;;;;21.82;50.08;100567.00;6779832;19;3512659;-58
2021/09/07 08:54:15;;;;;;;;;16.33;12.67;;;;;21.39;50.20;100558.25;6791405;19;2792872;-58
2021/09/07 08:56:44;;;;;;;;;13.33;11.00;;;;;22.14;49.71;100558.44;6779768;19;2787659;-58
2021/09/07 08:59:12;;;;;;;;;10.33;9.33;;;;;22.40;48.88;100563.31;6780746;19;3495973;-58
2021/09/07 09:01:46;;;;;;;;;19.67;11.67;;;;;22.64;47.47;100560.91;6782680;19;3542957;-57
2021/09/07 09:04:26;;;;;;;;;16.00;11.00;;;;;22.61;46.95;100554.88;6755349;19;2810568;-58
2021/09/07 09:06:56;;;;;;;;;12.20;9.20;;;;;22.57;48.77;100552.44;6813613;19;2788693;-58
2021/09/07 09:09:38;;;;;;;;;12.33;11.00;;;;;23.12;46.88;100554.34;6757933;19;2789731;-57
2021/09/07 09:12:08;;;;;;;;;11.67;11.67;;;;;23.08;46.88;100552.06;6780208;19;3529348;-57
2021/09/07 09:14:44;;;;;;;;;13.00;12.00;;;;;23.29;45.86;100546.28;6781799;19;3512667;-57
2021/09/07 09:17:18;;;;;;;;;12.00;11.00;;;;;23.27;45.20;100551.91;6788370;19;2787691;-58
2021/09/07 09:20:03;;;;;;;;;13.67;13.00;;;;;23.78;45.60;100549.53;6784205;19;3536624;-58
2021/09/07 09:22:51;;;;;;;;;12.33;11.00;;;;;23.61;46.70;100546.59;6755456;19;2793982;-58
2021/09/07 09:25:19;;;;;;;;;15.67;12.00;;;;;23.51;44.82;100544.94;6780118;19;3527253;-58
2021/09/07 09:27:58;;;;;;;;;10.00;9.67;;;;;23.88;44.10;100537.44;6779030;19;3498052;-58
2021/09/07 09:30:45;;;;;;;;;15.00;12.33;;;;;24.48;40.82;100535.75;6788337;19;2791822;-58
2021/09/07 09:33:21;;;;;;;;;12.67;12.00;;;;;24.73;42.56;100540.34;6789007;19;2793914;-59
2021/09/07 09:35:59;;;;;;;;;12.40;11.20;;;;;24.71;42.04;100541.53;6810837;19;2787706;-58
2021/09/07 09:38:34;;;;;;;;;12.67;11.67;;;;;24.14;41.90;100533.81;6756388;19;2790851;-59
2021/09/07 09:41:05;;;;;;;;;12.00;10.67;;;;;24.72;41.03;100538.66;6789350;19;2789747;-59
2021/09/07 09:43:44;;;;;;;;;11.67;11.67;;;;;24.86;41.82;100530.78;6777956;19;3514722;-58
2021/09/07 09:46:23;;;;;;;;;10.00;9.67;;;;;24.92;41.05;100532.88;6779341;19;3483465;-59
2021/09/07 09:49:14;;;;;;;;;13.00;10.67;;;;;24.81;40.59;100533.19;6777704;19;3514737;-59
2021/09/07 09:51:43;;;;;;;;;12.00;11.00;;;;;24.77;40.98;100529.03;6779783;19;3524104;-58
2021/09/07 09:54:25;;;;;;;;;12.00;12.00;;;;;24.79;40.33;100535.22;6756014;19;2788702;-59
2021/09/07 09:56:57;;;;;;;;;13.00;13.00;;;;;25.25;39.78;100522.84;6788564;19;2785617;-58
2021/09/07 09:59:27;;;;;;;;;9.33;9.00;;;;;25.25;40.20;100521.97;6791860;19;2742882;-58
2021/09/07 10:01:58;;;;;;;;;10.00;10.00;;;;;25.52;41.04;100518.06;6781484;19;3495973;-59
2021/09/07 10:04:29;;;;;;;;;13.67;11.00;;;;;25.29;40.83;100520.63;6778646;19;3517874;-58
2021/09/07 10:06:58;;;;;;;;;12.00;10.33;;;;;25.60;38.82;100521.66;6780065;19;3517875;-59
2021/09/07 10:09:27;;;;;;;;;11.67;10.67;;;;;25.22;40.32;100516.81;6778936;19;3507458;-58
2021/09/07 10:12:28;;;;;;;;;10.33;10.00;;;;;25.29;39.55;100517.88;6778426;19;2781464;-58
2021/09/07 10:15:08;;;;;;;;;14.00;13.00;;;;;25.63;39.25;100520.47;6789223;19;2489783;-58
2021/09/07 10:17:45;;;;;;;;;16.00;13.00;;;;;24.89;39.75;100513.97;6792849;19;2797078;-57
2021/09/07 10:20:46;;;;;;;;;10.40;10.40;;;;;25.07;39.20;100517.47;6814111;19;2791826;-58
2021/09/07 10:23:29;;;;;;;;;11.00;11.00;;;;;25.62;38.58;100513.25;6752744;19;3515874;-59
2021/09/07 10:25:58;;;;;;;;;12.67;9.67;;;;;25.42;38.48;100520.97;6786284;19;2778329;-58
2021/09/07 10:28:43;;;;;;;;;11.67;9.00;;;;;24.76;39.77;100514.44;6782843;19;3484932;-59
2021/09/07 10:31:38;;;;;;;;;13.33;13.33;;;;;25.86;38.39;100517.03;6785191;19;3511597;-58
2021/09/07 10:34:06;;;;;;;;;12.67;11.33;;;;;25.17;39.43;100509.97;6760849;19;2778281;-57
2021/09/07 10:37:04;;;;;;;;;14.67;13.33;;;;;25.34;38.79;100504.47;6797994;19;2787740;-58
2021/09/07 10:39:42;;;;;;;;;13.00;10.00;;;;;26.02;37.97;100504.13;6784519;19;2785572;-58
2021/09/07 10:42:14;;;;;;;;;11.67;9.33;;;;;25.70;38.75;100501.38;6781710;19;3492840;-58
2021/09/07 10:44:45;;;;;;;;;13.67;12.00;;;;;26.11;37.84;100512.38;6784622;19;3519926;-59
2021/09/07 10:47:16;;;;;;;;;12.00;11.33;;;;;26.02;38.62;100503.28;6791706;19;2784573;-58
2021/09/07 10:49:55;;;;;;;;;11.67;9.33;;;;;25.61;38.91;100504.13;6785076;19;2766931;-58
2021/09/07 10:52:29;;;;;;;;;13.33;11.33;;;;;26.11;37.63;100509.63;6794144;19;2788705;-58
2021/09/07 10:55:12;;;;;;;;;10.50;9.00;;;;;25.64;38.97;100494.69;6795747;19;2768918;-58
2021/09/07 10:57:51;;;;;;;;;10.67;9.00;;;;;26.27;37.76;100498.56;6786697;19;2774154;-58
2021/09/07 11:00:20;;;;;;;;;11.33;8.67;;;;;25.97;37.91;100497.44;6784123;19;3481421;-57
2021/09/07 11:02:56;;;;;;;;;14.67;12.00;;;;;26.57;37.17;100493.31;6784346;19;3519961;-57
2021/09/07 11:05:26;;;;;;;;;11.83;11.83;;;;;26.48;36.99;100493.31;6780011;19;2791826;-58
2021/09/07 11:08:09;;;;;;;;;9.67;9.67;;;;;26.15;37.65;100495.34;6782510;19;3494935;-58
2021/09/07 11:10:52;;;;;;;;;9.00;7.67;;;;;26.56;37.32;100494.34;6784039;19;3462688;-57
2021/09/07 11:13:30;;;;;;;;;10.67;10.33;;;;;26.93;36.23;100496.41;6798124;19;2787695;-58